Time;durP1;ratioP1;P1;durP2;ratioP2;P2;SDS_P1;SDS_P2;PMS_P1;PMS_P2;Temp;Humidity;BMP_temperature;BMP_pressure;BME280_temperature;BME280_humidity;BME280_pressure;Samples;Min_cycle;Max_cycle;Signal;HPM_P1;HPM_P2
2021/07/19 00:01:54;;;;;;;12.15;9.35;;;;;;;24.15;70.77;99720.47;6100135;23;20263;-63
2021/07/19 00:04:20;;;;;;;14.35;8.70;;;;;;;24.16;70.82;99747.88;6100500;23;20006;-64
2021/07/19 00:06:46;;;;;;;13.77;8.82;;;;;;;24.20;71.15;99762.78;6100553;23;20090;-64
2021/07/19 00:09:11;;;;;;;19.88;8.40;;;;;;;24.10;71.33;99758.53;6100210;23;20010;-63
2021/07/19 00:11:38;;;;;;;11.73;8.70;;;;;;;24.07;71.17;99741.53;6100331;23;20422;-64
2021/07/19 00:14:04;;;;;;;10.68;8.85;;;;;;;24.05;71.05;99748.56;6100163;23;20016;-64
2021/07/19 00:16:30;;;;;;;14.88;8.38;;;;;;;24.04;71.58;99777.81;6100349;23;20002;-63
2021/07/19 00:18:55;;;;;;;14.45;8.80;;;;;;;24.05;70.88;99776.50;6100214;23;20015;-63
2021/07/19 00:21:21;;;;;;;17.70;8.90;;;;;;;23.95;71.61;99778.78;6100232;23;20006;-63
2021/07/19 00:23:46;;;;;;;11.02;9.07;;;;;;;23.97;71.49;99761.06;6100318;23;20024;-63
2021/07/19 00:26:12;;;;;;;10.20;8.15;;;;;;;23.95;71.17;99772.25;6100068;23;20010;-63
2021/07/19 00:28:37;;;;;;;11.65;8.57;;;;;;;23.94;71.40;99776.44;6100189;23;20069;-63
2021/07/19 00:31:03;;;;;;;13.43;8.43;;;;;;;23.96;71.54;99788.19;6100352;23;20057;-63
2021/07/19 00:33:28;;;;;;;10.75;8.30;;;;;;;23.97;71.36;99798.38;6100328;23;20014;-64
2021/07/19 00:35:54;;;;;;;12.52;9.05;;;;;;;23.93;71.30;99783.47;6102357;23;20494;-63
2021/07/19 00:38:19;;;;;;;10.50;7.95;;;;;;;23.91;71.15;99781.09;6102203;23;20005;-63
2021/07/19 00:40:45;;;;;;;13.75;7.95;;;;;;;23.88;71.45;99775.59;6102168;23;20013;-61
2021/07/19 00:43:10;;;;;;;13.70;8.65;;;;;;;23.84;71.49;99781.59;6101970;23;20077;-64
2021/07/19 00:45:36;;;;;;;12.35;8.40;;;;;;;23.84;71.63;99775.06;6102475;23;20263;-64
2021/07/19 00:48:04;;;;;;;14.65;8.90;;;;;;;23.83;71.61;99759.09;6102454;23;20030;-64
2021/07/19 00:50:33;;;;;;;12.20;8.32;;;;;;;23.82;71.84;99758.31;6102228;23;20062;-64
2021/07/19 00:53:00;;;;;;;12.98;8.30;;;;;;;23.82;71.74;99751.78;6102479;23;20002;-64
2021/07/19 00:55:33;;;;;;;11.60;8.93;;;;;;;23.81;72.18;99753.09;6102157;23;20010;-64
2021/07/19 00:58:01;;;;;;;10.73;8.30;;;;;;;23.80;71.91;99760.13;6101917;23;20010;-63
2021/07/19 01:00:28;;;;;;;11.57;8.23;;;;;;;23.77;71.82;99772.63;6102119;23;20426;-63
2021/07/19 01:02:56;;;;;;;9.93;8.70;;;;;;;23.75;71.93;99781.75;6101848;23;20089;-61
2021/07/19 01:05:21;;;;;;;12.20;8.25;;;;;;;23.76;71.91;99788.28;6102015;23;20014;-63
2021/07/19 01:07:48;;;;;;;12.10;8.00;;;;;;;23.74;72.10;99774.44;6102179;23;20003;-63
2021/07/19 01:10:17;;;;;;;11.45;8.73;;;;;;;23.73;72.24;99779.38;6076476;23;20410;-63
2021/07/19 01:12:53;;;;;;;14.43;8.35;;;;;;;23.69;72.22;99793.19;6101950;23;20010;-63
2021/07/19 01:15:21;;;;;;;14.18;8.90;;;;;;;23.66;72.61;99794.19;6102273;23;20002;-63
2021/07/19 01:17:46;;;;;;;13.57;9.00;;;;;;;23.63;72.43;99788.69;6101689;23;20355;-63
2021/07/19 01:20:12;;;;;;;10.98;9.00;;;;;;;23.59;72.54;99791.78;6101896;23;19998;-62
2021/07/19 01:23:34;;;;;;;9.88;8.63;;;;;;;23.61;72.61;99797.81;6101893;23;20006;-63
2021/07/19 01:26:03;;;;;;;12.60;8.45;;;;;;;23.57;72.85;99797.25;5985124;24;20281;-63
2021/07/19 01:28:46;;;;;;;11.95;8.75;;;;;;;23.54;72.91;99798.22;5985512;24;20392;-63
2021/07/19 01:31:19;;;;;;;9.60;8.15;;;;;;;23.55;72.87;99796.91;6069260;23;20010;-63
2021/07/19 01:33:52;;;;;;;12.00;8.65;;;;;;;23.56;72.81;99801.41;6101194;23;20248;-62
2021/07/19 01:36:24;;;;;;;11.05;7.88;;;;;;;23.55;72.80;99807.59;6101787;23;20366;-63
2021/07/19 01:38:50;;;;;;;11.52;6.60;;;;;;;23.58;72.26;99804.56;6101636;23;19998;-63
2021/07/19 01:41:19;;;;;;;8.45;5.38;;;;;;;23.58;72.15;99810.31;6101459;23;20006;-63
2021/07/19 01:43:46;;;;;;;6.05;4.47;;;;;;;23.55;72.14;99814.13;6101681;23;20422;-61
2021/07/19 01:46:14;;;;;;;9.45;4.63;;;;;;;23.50;72.35;99814.88;6101740;23;20062;-63
2021/07/19 01:48:40;;;;;;;5.97;4.43;;;;;;;23.49;72.25;99804.69;6101568;23;20033;-64
2021/07/19 01:51:06;;;;;;;7.38;4.40;;;;;;;23.49;72.42;99798.94;6101440;23;20002;-63
2021/07/19 01:53:33;;;;;;;6.10;4.30;;;;;;;23.48;72.40;99794.50;6101455;23;20033;-63
2021/07/19 01:55:59;;;;;;;8.02;4.60;;;;;;;23.50;72.39;99796.88;6101257;23;20021;-63
2021/07/19 01:58:27;;;;;;;9.13;5.15;;;;;;;23.50;72.12;99800.53;6101521;23;20002;-62
2021/07/19 02:00:53;;;;;;;4.80;3.88;;;;;;;23.49;71.98;99784.59;6101369;23;20021;-62
2021/07/19 02:03:18;;;;;;;5.47;4.57;;;;;;;23.49;71.79;99784.59;6101460;23;20267;-63
2021/07/19 02:05:45;;;;;;;5.05;4.55;;;;;;;23.44;72.04;99791.09;6101215;23;20386;-63
2021/07/19 02:08:15;;;;;;;6.50;3.63;;;;;;;23.40;72.48;99793.41;6101216;23;20033;-63
2021/07/19 02:10:41;;;;;;;5.40;4.40;;;;;;;23.38;72.65;99798.84;6101199;23;20003;-62
2021/07/19 02:13:10;;;;;;;8.20;4.38;;;;;;;23.35;72.59;99797.00;6101380;23;20010;-63
2021/07/19 02:15:38;;;;;;;6.93;4.43;;;;;;;23.35;72.74;99802.72;6101554;23;20002;-62
2021/07/19 02:18:06;;;;;;;7.95;4.40;;;;;;;23.35;72.35;99794.91;6101171;23;20359;-63
2021/07/19 02:20:32;;;;;;;7.82;4.13;;;;;;;23.34;72.51;99789.69;6101588;23;20069;-63
2021/07/19 02:22:59;;;;;;;5.53;4.05;;;;;;;23.31;72.26;99785.75;6101348;23;20002;-63
2021/07/19 02:25:24;;;;;;;6.72;3.47;;;;;;;23.29;72.64;99773.22;6101049;23;20073;-63
2021/07/19 02:27:52;;;;;;;5.05;3.92;;;;;;;23.25;72.71;99767.69;6099745;23;20031;-63
2021/07/19 02:30:19;;;;;;;7.80;3.97;;;;;;;23.24;72.83;99763.25;6101055;23;20003;-63
2021/07/19 02:32:49;;;;;;;4.38;3.97;;;;;;;23.28;73.01;99763.00;6101364;23;20018;-63
2021/07/19 02:35:16;;;;;;;9.02;3.70;;;;;;;23.30;72.71;99761.25;6100800;23;20026;-63
2021/07/19 02:37:43;;;;;;;6.97;3.63;;;;;;;23.26;72.61;99779.94;6101019;23;19998;-62
2021/07/19 02:40:10;;;;;;;4.13;3.67;;;;;;;23.21;72.96;99783.53;6100827;23;20006;-63
2021/07/19 02:42:42;;;;;;;6.47;4.07;;;;;;;23.18;73.39;99788.22;6101114;23;20013;-62
2021/07/19 02:45:10;;;;;;;4.57;4.15;;;;;;;23.17;73.56;99786.63;6075412;23;20359;-63
2021/07/19 02:47:37;;;;;;;7.85;4.40;;;;;;;23.16;73.64;99778.53;6101179;23;20090;-63
2021/07/19 02:50:06;;;;;;;6.65;4.18;;;;;;;23.13;74.18;99768.88;6101046;23;20374;-62
2021/07/19 02:52:34;;;;;;;6.07;4.40;;;;;;;23.10;74.51;99776.41;6100638;23;20006;-63
2021/07/19 02:55:01;;;;;;;7.53;4.60;;;;;;;23.09;75.07;99788.38;6101041;23;20407;-62
2021/07/19 02:57:27;;;;;;;8.18;5.30;;;;;;;23.06;75.42;99775.84;6100556;23;20006;-61
2021/07/19 02:59:52;;;;;;;6.20;4.80;;;;;;;23.05;75.34;99787.81;6100778;23;20010;-63
2021/07/19 03:02:23;;;;;;;7.63;5.18;;;;;;;23.02;75.43;99783.09;6100685;23;20029;-63
2021/07/19 03:04:53;;;;;;;7.85;5.15;;;;;;;22.98;75.68;99791.09;6101173;23;20259;-62
2021/07/19 03:07:21;;;;;;;7.55;5.47;;;;;;;22.94;75.85;99791.31;6100255;23;20037;-62
2021/07/19 03:09:52;;;;;;;7.43;5.68;;;;;;;22.88;76.71;99781.88;6100853;23;20006;-62
2021/07/19 03:12:22;;;;;;;10.40;6.17;;;;;;;22.86;76.79;99777.94;6100712;23;20360;-63
2021/07/19 03:14:49;;;;;;;7.93;6.15;;;;;;;22.82;76.93;99766.69;6100798;23;20002;-62
2021/07/19 03:17:18;;;;;;;8.90;6.38;;;;;;;22.79;77.20;99765.59;6100776;23;20032;-63
2021/07/19 03:19:46;;;;;;;8.48;6.15;;;;;;;22.79;77.79;99770.53;6100423;23;20007;-62
2021/07/19 03:22:13;;;;;;;8.30;6.72;;;;;;;22.78;77.60;99772.63;6100533;23;20012;-63
2021/07/19 03:24:39;;;;;;;14.13;6.82;;;;;;;22.79;77.88;99779.13;6100697;23;20002;-62
2021/07/19 03:27:05;;;;;;;8.10;6.43;;;;;;;22.79;78.44;99777.06;6100332;23;20029;-62
2021/07/19 03:29:33;;;;;;;11.15;7.72;;;;;;;22.79;78.62;99770.53;6100523;23;20430;-62
2021/07/19 03:31:59;;;;;;;8.45;7.38;;;;;;;22.79;79.07;99770.53;6100612;23;20006;-62
2021/07/19 03:34:25;;;;;;;10.98;7.45;;;;;;;22.77;79.21;99770.25;6100336;23;20022;-62
2021/07/19 03:36:54;;;;;;;9.55;7.13;;;;;;;22.74;79.09;99766.31;6100240;23;20013;-62
2021/07/19 03:39:21;;;;;;;11.88;7.13;;;;;;;22.73;78.80;99761.84;6100764;23;20006;-62
2021/07/19 03:41:49;;;;;;;9.43;7.60;;;;;;;22.73;79.19;99741.81;6100465;23;20007;-63
2021/07/19 03:44:16;;;;;;;9.43;7.63;;;;;;;22.73;80.15;99735.28;6100854;23;20358;-63
2021/07/19 03:46:43;;;;;;;8.13;6.88;;;;;;;22.71;80.43;99743.59;6100437;23;20013;-63
2021/07/19 03:49:12;;;;;;;11.70;8.05;;;;;;;22.69;80.89;99749.03;6100371;23;20006;-63
2021/07/19 03:51:37;;;;;;;8.98;7.75;;;;;;;22.68;81.15;99770.38;6100197;23;20006;-63
2021/07/19 03:54:03;;;;;;;12.90;7.63;;;;;;;22.68;80.91;99784.69;6100438;23;20017;-63
2021/07/19 03:56:28;;;;;;;8.68;7.57;;;;;;;22.68;80.62;99784.69;6100573;23;20314;-62
2021/07/19 03:58:56;;;;;;;11.07;7.88;;;;;;;22.65;80.56;99780.75;6100447;23;20240;-62
2021/07/19 04:01:22;;;;;;;10.38;6.93;;;;;;;22.62;80.65;99773.19;6100488;23;20066;-62
2021/07/19 04:03:52;;;;;;;15.07;8.23;;;;;;;22.59;80.85;99759.88;6100362;23;20263;-62
2021/07/19 04:06:19;;;;;;;9.93;7.63;;;;;;;22.59;81.13;99759.06;6100078;23;20013;-62
2021/07/19 04:08:45;;;;;;;9.90;7.82;;;;;;;22.58;81.40;99768.97;6074837;23;20363;-62
2021/07/19 04:11:15;;;;;;;13.02;8.40;;;;;;;22.56;81.46;99771.53;6100450;23;20002;-62
2021/07/19 04:13:41;;;;;;;9.35;7.65;;;;;;;22.59;81.53;99764.81;6100343;23;20501;-62
2021/07/19 04:16:07;;;;;;;9.10;7.63;;;;;;;22.56;81.64;99754.34;6100397;23;20013;-62
2021/07/19 04:18:33;;;;;;;9.18;8.20;;;;;;;22.54;81.95;99756.94;6100337;23;20010;-62
2021/07/19 04:20:58;;;;;;;9.38;7.88;;;;;;;22.50;82.34;99755.06;6099844;23;20009;-63
2021/07/19 04:23:24;;;;;;;10.60;8.40;;;;;;;22.49;82.49;99739.19;6100463;23;20010;-62
2021/07/19 04:25:50;;;;;;;10.93;7.53;;;;;;;22.49;82.41;99742.03;6100040;23;20010;-62
2021/07/19 04:28:20;;;;;;;11.18;8.38;;;;;;;22.49;82.36;99756.38;6099951;23;20002;-62
2021/07/19 04:30:46;;;;;;;11.57;8.80;;;;;;;22.46;82.77;99763.09;6100160;23;20033;-62
2021/07/19 04:33:16;;;;;;;11.07;8.40;;;;;;;22.45;83.03;99772.94;6100792;23;20002;-62
2021/07/19 04:35:45;;;;;;;10.70;7.68;;;;;;;22.43;83.22;99764.06;6099720;23;20279;-63
2021/07/19 04:38:11;;;;;;;11.40;8.43;;;;;;;22.41;82.97;99769.50;6100570;23;20003;-63
2021/07/19 04:40:36;;;;;;;12.57;8.52;;;;;;;22.39;83.39;99757.78;6100192;23;20010;-63
2021/07/19 04:43:02;;;;;;;12.27;8.50;;;;;;;22.37;83.52;99765.28;6100009;23;20477;-63
2021/07/19 04:45:27;;;;;;;10.18;7.80;;;;;;;22.36;83.62;99758.78;6100286;23;20431;-62
2021/07/19 04:47:52;;;;;;;12.35;9.15;;;;;;;22.37;83.75;99763.22;6100252;23;20082;-62
2021/07/19 04:50:19;;;;;;;10.07;8.45;;;;;;;22.35;84.07;99757.19;6099656;23;20009;-62
2021/07/19 04:52:45;;;;;;;15.65;9.32;;;;;;;22.34;84.00;99755.63;6100312;23;20010;-62
2021/07/19 04:55:23;;;;;;;9.95;8.23;;;;;;;22.37;83.95;99754.63;6100217;23;20003;-60
2021/07/19 04:57:52;;;;;;;10.02;8.98;;;;;;;22.39;84.47;99754.91;6100046;23;20034;-61
2021/07/19 05:00:19;;;;;;;10.48;9.10;;;;;;;22.39;83.99;99762.72;6100182;23;20089;-61
2021/07/19 05:02:46;;;;;;;16.13;9.82;;;;;;;22.38;84.06;99750.47;6100210;23;20109;-61
2021/07/19 05:05:15;;;;;;;10.65;8.85;;;;;;;22.37;84.16;99753.84;6099957;23;20077;-61
2021/07/19 05:07:43;;;;;;;9.95;8.88;;;;;;;22.34;84.48;99752.75;6100144;23;20089;-61
2021/07/19 05:10:10;;;;;;;14.10;8.75;;;;;;;22.34;84.73;99751.97;6100151;23;20009;-62
2021/07/19 05:12:37;;;;;;;11.63;8.95;;;;;;;22.35;84.55;99757.19;6100067;23;20364;-60
2021/07/19 05:15:03;;;;;;;13.32;9.30;;;;;;;22.35;84.57;99762.13;6100421;23;20012;-61
2021/07/19 05:17:29;;;;;;;9.60;8.60;;;;;;;22.34;84.57;99760.56;6099347;23;20010;-62
2021/07/19 05:19:55;;;;;;;11.98;8.75;;;;;;;22.31;84.46;99756.63;6099266;23;20268;-61
2021/07/19 05:22:21;;;;;;;13.55;8.98;;;;;;;22.28;84.72;99760.50;6075361;23;20002;-62
2021/07/19 05:24:46;;;;;;;10.75;8.95;;;;;;;22.30;85.18;99760.78;6102057;23;20006;-62
2021/07/19 05:27:15;;;;;;;12.02;9.18;;;;;;;22.29;84.96;99755.56;6101432;23;20263;-60
2021/07/19 05:29:41;;;;;;;18.52;9.82;;;;;;;22.29;84.98;99764.13;6101712;23;20006;-61
2021/07/19 05:32:09;;;;;;;10.63;8.55;;;;;;;22.29;85.06;99769.88;6101528;23;20006;-61
2021/07/19 05:34:35;;;;;;;11.75;8.90;;;;;;;22.29;85.16;99775.59;6101195;23;20109;-61
2021/07/19 05:37:01;;;;;;;10.88;8.68;;;;;;;22.30;84.67;99772.22;6101767;23;20323;-61
2021/07/19 05:39:27;;;;;;;11.00;9.15;;;;;;;22.34;84.97;99784.25;6102099;23;20146;-61
2021/07/19 05:41:52;;;;;;;13.82;10.15;;;;;;;22.35;84.65;99785.81;6101214;23;20045;-63
2021/07/19 05:44:18;;;;;;;13.45;9.02;;;;;;;22.33;84.39;99785.53;6101966;23;20102;-62
2021/07/19 05:46:44;;;;;;;13.05;9.73;;;;;;;22.34;84.91;99789.97;6101231;23;20007;-62
2021/07/19 05:49:09;;;;;;;12.43;10.20;;;;;;;22.36;85.19;99812.38;6101600;23;20009;-60
2021/07/19 05:51:35;;;;;;;13.50;11.38;;;;;;;22.37;84.97;99811.09;6101470;23;20034;-60
2021/07/19 05:54:01;;;;;;;13.32;10.30;;;;;;;22.38;84.87;99806.94;6076376;23;20003;-60
2021/07/19 05:56:27;;;;;;;13.98;10.70;;;;;;;22.40;84.85;99805.16;6101885;23;20010;-61
2021/07/19 05:58:53;;;;;;;12.48;10.25;;;;;;;22.42;84.96;99818.97;6101213;23;20078;-60
2021/07/19 06:01:18;;;;;;;12.82;10.85;;;;;;;22.44;85.39;99811.44;6101284;23;20307;-60
2021/07/19 06:03:43;;;;;;;14.77;11.60;;;;;;;22.45;85.72;99809.38;6101430;23;20013;-61
2021/07/19 06:06:09;;;;;;;15.52;11.68;;;;;;;22.46;85.85;99803.19;6101096;23;20009;-60
2021/07/19 06:08:35;;;;;;;14.80;11.00;;;;;;;22.47;85.85;99804.75;6101338;23;20007;-61
2021/07/19 06:11:00;;;;;;;20.98;10.80;;;;;;;22.50;85.81;99815.22;6101326;23;20377;-63
2021/07/19 06:13:25;;;;;;;21.98;11.77;;;;;;;22.52;86.00;99817.56;6101203;23;20010;-63
2021/07/19 06:15:51;;;;;;;15.90;11.73;;;;;;;22.51;86.27;99816.00;6100875;23;20077;-60
2021/07/19 06:18:16;;;;;;;16.98;11.15;;;;;;;22.52;86.31;99817.56;6101299;23;20002;-60
2021/07/19 06:20:42;;;;;;;15.13;12.05;;;;;;;22.52;86.42;99818.34;6101410;23;20013;-60
2021/07/19 06:23:08;;;;;;;14.13;11.93;;;;;;;22.55;86.53;99821.50;6101150;23;20090;-60
2021/07/19 06:25:36;;;;;;;14.23;11.50;;;;;;;22.56;86.74;99820.22;6101245;23;20006;-61
2021/07/19 06:28:04;;;;;;;15.52;12.57;;;;;;;22.56;86.81;99823.88;6068633;23;20817;-63
2021/07/19 06:30:30;;;;;;;14.05;12.25;;;;;;;22.58;87.19;99826.25;6079981;23;20007;-62
2021/07/19 06:32:56;;;;;;;16.27;12.73;;;;;;;22.58;87.35;99814.78;6100990;23;20011;-62
2021/07/19 06:35:21;;;;;;;15.98;12.60;;;;;;;22.60;87.76;99823.66;6100722;23;20056;-63
2021/07/19 06:37:47;;;;;;;16.65;13.30;;;;;;;22.61;87.56;99823.16;6075601;23;20002;-63
2021/07/19 06:40:13;;;;;;;14.68;13.07;;;;;;;22.62;87.84;99829.66;6101030;23;20014;-63
2021/07/19 06:42:38;;;;;;;23.20;14.27;;;;;;;22.65;87.73;99825.81;6101349;23;20002;-62
2021/07/19 06:45:05;;;;;;;15.93;13.85;;;;;;;22.65;87.93;99823.72;6100459;23;20025;-62
2021/07/19 06:47:31;;;;;;;17.33;13.57;;;;;;;22.67;87.66;99835.47;6100936;23;20002;-62
2021/07/19 06:49:57;;;;;;;17.17;14.02;;;;;;;22.67;87.61;99837.56;6100973;23;20082;-63
2021/07/19 06:52:23;;;;;;;18.25;13.43;;;;;;;22.67;88.06;99843.28;6100644;23;20226;-62
2021/07/19 06:54:49;;;;;;;18.05;13.13;;;;;;;22.69;88.07;99846.44;6100725;23;20406;-63
2021/07/19 06:57:14;;;;;;;15.55;13.77;;;;;;;22.72;88.42;99854.03;6100508;23;20002;-63
2021/07/19 06:59:41;;;;;;;15.95;14.25;;;;;;;22.75;88.10;99858.78;6100288;23;20065;-62
2021/07/19 07:02:07;;;;;;;17.33;13.60;;;;;;;22.77;88.55;99857.00;6100517;23;20010;-63
2021/07/19 07:04:32;;;;;;;17.35;13.65;;;;;;;22.80;88.02;99863.78;6100813;23;20057;-63
2021/07/19 07:06:58;;;;;;;17.05;13.88;;;;;;;22.83;88.21;99877.16;6100780;23;19998;-63
2021/07/19 07:09:24;;;;;;;17.98;14.25;;;;;;;22.86;87.99;99872.50;6100399;23;20272;-62
2021/07/19 07:11:49;;;;;;;17.60;14.10;;;;;;;22.86;88.03;99876.13;6100718;23;20007;-61
2021/07/19 07:14:14;;;;;;;18.92;14.20;;;;;;;22.87;88.20;99869.13;6100278;23;20003;-62
2021/07/19 07:16:40;;;;;;;22.30;14.52;;;;;;;22.87;88.42;99866.25;6100495;23;20006;-62
2021/07/19 07:19:05;;;;;;;19.65;14.65;;;;;;;22.88;88.34;99867.84;6100939;23;20003;-62
2021/07/19 07:21:31;;;;;;;17.90;14.45;;;;;;;22.90;88.39;99873.06;6100751;23;20009;-62
2021/07/19 07:23:57;;;;;;;18.42;14.05;;;;;;;22.92;88.48;99877.00;6100381;23;20054;-62
2021/07/19 07:26:23;;;;;;;17.88;14.57;;;;;;;22.94;88.28;99879.34;6100576;23;20145;-61
2021/07/19 07:28:49;;;;;;;17.27;14.38;;;;;;;22.95;88.33;99876.00;6100160;23;20007;-61
2021/07/19 07:31:15;;;;;;;16.70;13.70;;;;;;;22.97;88.17;99882.00;6100327;23;20026;-62
2021/07/19 07:33:40;;;;;;;20.40;12.82;;;;;;;23.01;88.13;99882.59;6100682;23;20373;-62
2021/07/19 07:36:06;;;;;;;16.48;13.40;;;;;;;23.03;88.12;99894.34;6100541;23;20308;-63
2021/07/19 07:38:32;;;;;;;18.40;14.18;;;;;;;23.05;87.97;99891.78;6100549;23;19999;-63
2021/07/19 07:40:58;;;;;;;16.00;12.85;;;;;;;23.08;88.10;99896.50;6100370;23;20013;-60
2021/07/19 07:43:24;;;;;;;17.48;13.27;;;;;;;23.10;88.13;99893.91;6100532;23;20010;-63
2021/07/19 07:45:49;;;;;;;19.85;13.30;;;;;;;23.12;87.82;99897.06;6100574;23;20085;-62
2021/07/19 07:48:15;;;;;;;17.88;13.80;;;;;;;23.14;87.32;99890.84;6100430;23;20371;-62
2021/07/19 07:50:41;;;;;;;15.50;13.75;;;;;;;23.18;87.34;99905.75;6100582;23;20031;-62
2021/07/19 07:53:06;;;;;;;15.80;13.63;;;;;;;23.21;87.06;99898.22;6100324;23;20263;-62
2021/07/19 07:55:31;;;;;;;16.58;13.15;;;;;;;23.22;86.54;99903.44;6100310;23;20006;-62
2021/07/19 07:57:57;;;;;;;17.35;12.60;;;;;;;23.26;86.45;99898.28;6100165;23;20013;-62
2021/07/19 08:00:22;;;;;;;18.58;12.75;;;;;;;23.30;86.59;99906.69;6100452;23;20017;-61
2021/07/19 08:02:48;;;;;;;17.90;12.90;;;;;;;23.33;86.33;99909.34;6100293;23;20060;-60
2021/07/19 08:05:14;;;;;;;16.45;13.82;;;;;;;23.37;85.79;99903.38;6100231;23;20089;-61
2021/07/19 08:07:40;;;;;;;18.08;12.25;;;;;;;23.40;85.40;99905.22;6099935;23;20009;-60
2021/07/19 08:10:07;;;;;;;20.40;12.15;;;;;;;23.41;85.25;99904.72;6100395;23;20006;-62
2021/07/19 08:12:33;;;;;;;16.42;11.70;;;;;;;23.43;85.05;99907.09;6099353;23;20371;-63
2021/07/19 08:14:58;;;;;;;13.48;12.07;;;;;;;23.45;84.24;99893.03;6100046;23;20081;-62
2021/07/19 08:17:25;;;;;;;13.98;11.23;;;;;;;23.47;83.67;99890.44;6099942;23;20295;-62
2021/07/19 08:19:50;;;;;;;15.32;11.27;;;;;;;23.48;83.14;99886.28;6100211;23;20081;-63
2021/07/19 08:22:17;;;;;;;14.40;11.45;;;;;;;23.48;82.92;99897.75;6100340;23;20390;-63
2021/07/19 08:24:43;;;;;;;12.27;10.15;;;;;;;23.48;82.88;99896.97;6100312;23;20003;-63
2021/07/19 08:27:09;;;;;;;14.18;10.63;;;;;;;23.48;83.32;99896.97;6099429;23;20012;-64
2021/07/19 08:29:34;;;;;;;11.75;10.10;;;;;;;23.46;82.62;99888.88;6100216;23;20077;-63
2021/07/19 08:32:00;;;;;;;13.15;10.55;;;;;;;23.47;82.56;99890.44;6100166;23;20351;-63
2021/07/19 08:34:25;;;;;;;12.77;10.20;;;;;;;23.47;82.61;99886.78;6099869;23;20075;-61
2021/07/19 08:36:51;;;;;;;13.82;9.77;;;;;;;23.47;82.57;99887.59;6100254;23;20011;-63
2021/07/19 08:39:17;;;;;;;16.13;10.02;;;;;;;23.49;82.38;99882.13;6075078;23;20259;-63
2021/07/19 08:41:42;;;;;;;12.25;10.27;;;;;;;23.51;82.15;99882.41;6099783;23;20010;-63
2021/07/19 08:44:10;;;;;;;13.52;9.85;;;;;;;23.53;81.61;99879.03;6100171;23;20030;-63
2021/07/19 08:46:41;;;;;;;13.70;10.20;;;;;;;23.55;81.41;99877.22;6100169;23;20006;-63
2021/07/19 08:49:09;;;;;;;11.95;9.48;;;;;;;23.58;81.28;99875.50;6100006;23;20013;-61
2021/07/19 08:51:39;;;;;;;14.38;10.27;;;;;;;23.60;81.34;99873.69;6100563;23;20081;-63
2021/07/19 08:54:05;;;;;;;13.80;9.90;;;;;;;23.63;80.18;99869.81;6100299;23;20007;-63
2021/07/19 08:56:31;;;;;;;12.73;9.65;;;;;;;23.65;80.57;99855.75;6101420;23;20066;-63
2021/07/19 08:58:56;;;;;;;11.82;9.73;;;;;;;23.67;80.25;99861.75;6101893;23;19998;-63
2021/07/19 09:01:22;;;;;;;12.77;9.00;;;;;;;23.71;80.55;99855.78;6101953;23;20061;-63
2021/07/19 09:03:48;;;;;;;13.48;9.85;;;;;;;23.73;80.18;99856.84;6101892;23;20002;-62
2021/07/19 09:06:13;;;;;;;15.93;10.07;;;;;;;23.75;79.73;99853.47;6100476;23;20002;-63
2021/07/19 09:08:53;;;;;;;12.55;11.07;;;;;;;23.78;79.29;99857.41;6101913;23;19999;-63
2021/07/19 09:11:20;;;;;;;12.88;10.07;;;;;;;23.80;79.48;99851.94;6101235;23;20034;-63
2021/07/19 09:14:05;;;;;;;13.27;9.98;;;;;;;23.83;79.86;99859.53;6101478;23;20053;-64
2021/07/19 09:16:45;;;;;;;14.23;10.88;;;;;;;23.83;79.25;99862.41;6102053;23;20012;-63
2021/07/19 09:19:13;;;;;;;17.50;11.38;;;;;;;23.85;79.94;99868.47;6101516;23;20423;-63
2021/07/19 09:21:40;;;;;;;14.50;11.48;;;;;;;23.87;79.98;99865.88;6102040;23;19998;-63
2021/07/19 09:24:08;;;;;;;13.38;10.70;;;;;;;23.90;79.83;99870.59;6101613;23;19998;-63
2021/07/19 09:26:35;;;;;;;15.88;11.82;;;;;;;23.91;79.88;99886.50;6101792;23;20017;-63
2021/07/19 09:29:03;;;;;;;15.00;11.30;;;;;;;23.93;79.75;99893.31;6101841;23;19998;-63
2021/07/19 09:31:49;;;;;;;15.50;12.00;;;;;;;23.94;80.29;99894.09;6101614;23;20082;-63
2021/07/19 09:34:20;;;;;;;12.93;11.45;;;;;;;23.95;80.32;99901.41;6101589;23;20089;-66
2021/07/19 09:36:58;;;;;;;13.75;11.20;;;;;;;23.96;80.06;99900.13;6100959;23;20006;-61
2021/07/19 09:39:25;;;;;;;12.27;10.70;;;;;;;23.97;80.42;99904.56;6075052;23;20002;-63
2021/07/19 09:41:51;;;;;;;13.32;11.88;;;;;;;23.97;80.50;99899.63;6100668;23;20052;-60
2021/07/19 09:44:16;;;;;;;15.70;12.95;;;;;;;23.98;80.94;99900.41;6099386;23;20007;-60
2021/07/19 09:46:42;;;;;;;15.45;13.48;;;;;;;23.98;81.30;99909.78;6100412;23;20006;-60
2021/07/19 09:49:08;;;;;;;18.15;12.38;;;;;;;23.98;81.54;99906.13;6100485;23;20006;-63
2021/07/19 09:51:35;;;;;;;15.75;13.07;;;;;;;23.98;81.66;99912.66;6101166;23;20022;-63
2021/07/19 09:54:13;;;;;;;16.90;13.07;;;;;;;23.97;81.89;99908.22;6097822;23;20013;-63
2021/07/19 09:56:40;;;;;;;18.05;12.70;;;;;;;23.98;82.07;99909.00;6098708;23;20002;-63
2021/07/19 09:59:10;;;;;;;15.50;12.73;;;;;;;23.99;81.91;99899.09;6099346;23;20029;-63
2021/07/19 10:01:43;;;;;;;18.90;13.18;;;;;;;24.01;81.93;99903.03;6098968;23;20389;-63
2021/07/19 10:04:15;;;;;;;15.27;12.40;;;;;;;24.04;81.69;99898.38;6074000;23;20017;-63
2021/07/19 10:06:41;;;;;;;;;;;;;;;24.08;81.47;99909.63;6099251;23;20012;-63
2021/07/19 10:09:08;;;;;;;18.08;12.63;;;;;;;24.09;81.69;99916.94;6098843;23;19916;-63
2021/07/19 10:11:36;;;;;;;19.33;13.90;;;;;;;24.11;81.50;99920.91;6100776;23;20010;-63
2021/07/19 10:14:03;;;;;;;15.68;12.25;;;;;;;24.12;81.43;99913.84;6101225;23;20367;-63
2021/07/19 10:16:30;;;;;;;18.80;13.32;;;;;;;24.13;80.45;99912.56;6101370;23;20002;-63
2021/07/19 10:18:56;;;;;;;18.77;13.27;;;;;;;24.13;80.11;99923.25;6075917;23;20014;-62
2021/07/19 10:21:23;;;;;;;14.32;12.55;;;;;;;24.12;79.90;99922.47;6101574;23;20003;-62
2021/07/19 10:23:49;;;;;;;17.23;12.85;;;;;;;24.12;80.33;99927.41;6100996;23;20006;-63
2021/07/19 10:26:16;;;;;;;14.35;12.85;;;;;;;24.09;80.63;99917.72;6100940;23;20271;-63
2021/07/19 10:28:42;;;;;;;15.65;13.52;;;;;;;24.09;80.54;99917.72;6101137;23;20317;-62
2021/07/19 10:31:08;;;;;;;14.30;12.32;;;;;;;24.08;80.18;99921.88;6101059;23;20030;-62
2021/07/19 10:33:35;;;;;;;17.42;13.18;;;;;;;24.08;79.69;99924.75;6100748;23;20085;-63
2021/07/19 10:36:02;;;;;;;14.93;12.80;;;;;;;24.05;79.74;99917.94;6101004;23;20006;-63
2021/07/19 10:38:30;;;;;;;13.93;12.15;;;;;;;24.05;79.35;99920.03;6100796;23;19994;-63
2021/07/19 10:40:58;;;;;;;15.10;12.52;;;;;;;24.03;79.38;99922.63;6100984;23;20006;-63
2021/07/19 10:43:26;;;;;;;14.93;12.80;;;;;;;24.03;79.50;99925.50;6100920;23;20275;-63
2021/07/19 10:45:58;;;;;;;17.42;12.93;;;;;;;24.02;79.99;99921.84;6101457;23;20002;-62
2021/07/19 10:48:28;;;;;;;14.48;12.50;;;;;;;24.04;79.97;99921.31;6100707;23;20617;-62
2021/07/19 10:50:57;;;;;;;16.20;13.25;;;;;;;24.02;80.15;99921.06;6100791;23;20015;-63
2021/07/19 10:53:27;;;;;;;18.40;14.25;;;;;;;24.03;79.85;99916.88;6100121;23;20064;-63
2021/07/19 10:56:07;;;;;;;15.82;12.50;;;;;;;24.03;79.77;99920.53;6075804;23;20073;-63
2021/07/19 10:58:43;;;;;;;16.17;13.27;;;;;;;24.03;80.15;99923.41;6100936;23;20005;-63
2021/07/19 11:01:31;;;;;;;16.98;12.95;;;;;;;24.02;80.22;99918.97;6100962;23;20315;-63
2021/07/19 11:03:59;;;;;;;15.90;13.15;;;;;;;24.02;80.69;99923.91;6100703;23;20320;-63
2021/07/19 11:06:38;;;;;;;16.30;12.63;;;;;;;24.01;80.96;99917.41;6100529;23;20013;-62
2021/07/19 11:09:07;;;;;;;15.82;13.50;;;;;;;24.02;81.00;99915.31;6100696;23;20021;-63
2021/07/19 11:11:36;;;;;;;15.48;12.80;;;;;;;24.03;81.30;99916.88;6100643;23;20032;-62
2021/07/19 11:14:04;;;;;;;14.73;13.23;;;;;;;24.03;81.10;99911.16;6100651;23;20002;-62
2021/07/19 11:17:08;;;;;;;18.08;12.88;;;;;;;24.04;80.87;99916.38;6100600;23;20087;-64
2021/07/19 11:19:41;;;;;;;17.75;13.05;;;;;;;24.05;80.99;99908.53;6055964;23;20070;-66
2021/07/19 11:22:18;;;;;;;15.02;13.07;;;;;;;24.06;81.00;99913.00;6100236;23;20030;-65
2021/07/19 11:24:49;;;;;;;14.20;12.80;;;;;;;24.04;81.13;99901.22;6100782;23;20371;-65
2021/07/19 11:27:19;;;;;;;16.88;15.15;;;;;;;24.06;80.92;99895.78;6100245;23;20014;-65